Time;durP1;ratioP1;P1;durP2;ratioP2;P2;SDS_P1;SDS_P2;PMS_P1;PMS_P2;Temp;Humidity;BMP_temperature;BMP_pressure;BME280_temperature;BME280_humidity;BME280_pressure;Samples;Min_cycle;Max_cycle;Signal;HPM_P1;HPM_P2
2023/07/05 00:02:10;;;;;;;3.78;2.92;;;;;;;;;;6156816;23;20032;-86
2023/07/05 00:04:36;;;;;;;4.68;3.20;;;;;;;;;;6156594;23;20007;-84
2023/07/05 00:07:01;;;;;;;3.30;3.00;;;;;;;;;;6156478;23;20079;-85
2023/07/05 00:09:27;;;;;;;3.72;3.10;;;;;;;;;;6156591;23;20008;-87
2023/07/05 00:11:52;;;;;;;4.10;2.88;;;;;;;;;;6156835;23;20008;-85
2023/07/05 00:14:18;;;;;;;5.13;3.17;;;;;;;;;;6156272;23;20077;-85
2023/07/05 00:16:43;;;;;;;5.88;3.05;;;;;;;;;;6156718;23;20089;-85
2023/07/05 00:19:09;;;;;;;4.75;3.15;;;;;;;;;;6156712;23;20001;-85
2023/07/05 00:21:35;;;;;;;4.18;2.95;;;;;;;;;;6156170;23;20012;-85
2023/07/05 00:24:01;;;;;;;6.13;3.45;;;;;;;;;;6156343;23;20009;-86
2023/07/05 00:26:26;;;;;;;4.05;3.40;;;;;;;;;;6156732;23;20006;-85
2023/07/05 00:28:52;;;;;;;4.22;3.05;;;;;;;;;;6130188;23;20441;-86
2023/07/05 00:31:17;;;;;;;5.65;3.17;;;;;;;;;;6156317;23;20012;-86
2023/07/05 00:33:43;;;;;;;4.55;3.03;;;;;;;;;;6130330;23;20021;-85
2023/07/05 00:36:08;;;;;;;3.47;2.90;;;;;;;;;;6156303;23;20006;-85
2023/07/05 00:38:33;;;;;;;5.28;3.20;;;;;;;;;;6156340;23;20002;-83
2023/07/05 00:40:59;;;;;;;4.85;3.50;;;;;;;;;;6156549;23;20006;-86
2023/07/05 00:43:24;;;;;;;4.28;3.45;;;;;;;;;;6156241;23;20032;-86
2023/07/05 00:45:59;;;;;;;4.68;3.10;;;;;;;;;;6130313;23;20005;-86
2023/07/05 00:48:41;;;;;;;3.72;3.30;;;;;;;;;;6156604;23;20325;-86
2023/07/05 00:51:20;;;;;;;3.58;2.95;;;;;;;;;;6156403;23;20069;-86
2023/07/05 00:53:46;;;;;;;5.47;2.88;;;;;;;;;;6156121;23;20016;-86
2023/07/05 00:56:18;;;;;;;4.10;2.83;;;;;;;;;;6156158;23;20005;-86
2023/07/05 00:58:44;;;;;;;5.38;3.25;;;;;;;;;;6156193;23;20006;-87
2023/07/05 01:01:10;;;;;;;3.75;3.40;;;;;;;;;;6156153;23;20062;-86
2023/07/05 01:03:37;;;;;;;4.97;3.10;;;;;;;;;;6156222;23;20005;-85
2023/07/05 01:06:06;;;;;;;5.00;3.15;;;;;;;;;;6156179;23;20056;-85
2023/07/05 01:08:31;;;;;;;5.18;3.17;;;;;;;;;;6156393;23;20031;-86
2023/07/05 01:11:36;;;;;;;5.22;2.92;;;;;;;;;;6156214;23;20480;-86
2023/07/05 01:14:08;;;;;;;8.27;3.15;;;;;;;;;;6156193;23;20019;-86
2023/07/05 01:16:39;;;;;;;5.28;2.60;;;;;;;;;;6155977;23;20048;-86
2023/07/05 01:19:29;;;;;;;3.40;2.55;;;;;;;;;;6156157;23;20006;-86
2023/07/05 01:22:05;;;;;;;3.70;2.70;;;;;;;;;;6156074;23;20429;-86
2023/07/05 01:25:05;;;;;;;6.90;3.03;;;;;;;;;;6156321;23;20006;-86
2023/07/05 01:27:54;;;;;;;4.57;2.88;;;;;;;;;;6156163;23;20348;-87
2023/07/05 01:30:39;;;;;;;5.20;3.13;;;;;;;;;;6156132;23;20006;-86
2023/07/05 01:33:17;;;;;;;2.95;2.70;;;;;;;;;;6156935;23;20060;-85
2023/07/05 01:35:49;;;;;;;4.43;3.05;;;;;;;;;;6157851;23;20448;-86
2023/07/05 01:38:15;;;;;;;4.35;2.95;;;;;;;;;;6158015;23;20068;-86
2023/07/05 01:40:43;;;;;;;5.07;3.47;;;;;;;;;;6157982;23;20009;-86
2023/07/05 01:43:12;;;;;;;5.22;3.55;;;;;;;;;;6157785;23;20006;-86
2023/07/05 01:46:07;;;;;;;;;;;;;;;;;;6132167;23;20009;-86
2023/07/05 01:48:39;;;;;;;5.00;3.20;;;;;;;;;;6157961;23;20238;-86
2023/07/05 01:51:06;;;;;;;;;;;;;;;;;;6158136;23;20448;-85
2023/07/05 01:53:37;;;;;;;;;;;;;;;;;;6158119;23;19912;-84
2023/07/05 01:56:02;;;;;;;;;;;;;;;;;;6158254;23;19991;-86
2023/07/05 01:58:29;;;;;;;;;;;;;;;;;;6158394;23;19942;-86
2023/07/05 02:00:57;;;;;;;;;;;;;;;;;;6158293;23;19909;-86
2023/07/05 02:03:23;;;;;;;;;;;;;;;;;;6158144;23;19916;-86
2023/07/05 02:05:48;;;;;;;;;;;;;;;;;;6158127;23;19909;-85
2023/07/05 02:08:14;;;;;;;;;;;;;;;;;;6158289;23;19920;-86
2023/07/05 02:10:40;;;;;;;;;;;;;;;;;;6158173;23;19988;-86
2023/07/05 02:13:08;;;;;;;;;;;;;;;;;;6158377;23;19913;-86
2023/07/05 02:15:35;;;;;;;;;;;;;;;;;;6158235;23;19915;-86
2023/07/05 02:18:00;;;;;;;;;;;;;;;;;;6158245;23;20244;-87
2023/07/05 02:20:26;;;;;;;;;;;;;;;;;;6157918;23;19908;-86
2023/07/05 02:22:51;;;;;;;;;;;;;;;;;;6158139;23;19904;-87
2023/07/05 02:25:16;;;;;;;;;;;;;;;;;;6158175;23;19916;-85
2023/07/05 02:27:42;;;;;;;;;;;;;;;;;;6158066;23;20320;-86
2023/07/05 02:30:09;;;;;;;;;;;;;;;;;;6157987;23;19956;-86
2023/07/05 02:32:34;;;;;;;;;;;;;;;;;;6132401;23;19920;-86
2023/07/05 02:35:01;;;;;;;;;;;;;;;;;;6157919;23;19979;-85
2023/07/05 02:37:26;;;;;;;;;;;;;;;;;;6157849;23;19912;-85
2023/07/05 02:39:52;;;;;;;;;;;;;;;;;;6131788;23;19909;-86
2023/07/05 02:42:17;;;;;;;;;;;;;;;;;;6158014;23;20039;-86
2023/07/05 02:44:43;;;;;;;;;;;;;;;;;;6157325;23;19909;-86
2023/07/05 02:47:08;;;;;;;;;;;;;;;;;;6157993;23;19916;-85
2023/07/05 02:49:33;;;;;;;;;;;;;;;;;;6157856;23;19905;-85
2023/07/05 02:51:59;;;;;;;;;;;;;;;;;;6158148;23;20334;-86
2023/07/05 02:54:24;;;;;;;;;;;;;;;;;;6157962;23;19913;-86
2023/07/05 02:56:49;;;;;;;;;;;;;;;;;;6157798;23;19967;-86
2023/07/05 02:59:14;;;;;;;;;;;;;;;;;;6158096;23;19915;-86
2023/07/05 03:01:40;;;;;;;;;;;;;;;;;;6158100;23;20308;-87
2023/07/05 03:04:05;;;;;;;;;;;;;;;;;;6157744;23;20351;-85
2023/07/05 03:06:31;;;;;;;;;;;;;;;;;;6157532;23;19928;-86
2023/07/05 03:08:56;;;;;;;;;;;;;;;;;;6157844;23;19915;-86
2023/07/05 03:11:21;;;;;;;;;;;;;;;;;;6158068;23;19909;-86
2023/07/05 03:13:46;;;;;;;;;;;;;;;;;;6157537;23;19935;-87
2023/07/05 03:16:12;;;;;;;;;;;;;;;;;;6157652;23;19984;-85
2023/07/05 03:18:37;;;;;;;;;;;;;;;;;;6157640;23;19988;-86
2023/07/05 03:21:03;;;;;;;;;;;;;;;;;;6157526;23;19943;-86
2023/07/05 03:23:28;;;;;;;;;;;;;;;;;;6157280;23;19963;-85
2023/07/05 03:25:58;;;;;;;;;;;;;;;;;;6157856;23;19908;-86
2023/07/05 03:28:24;;;;;;;;;;;;;;;;;;6157666;23;19935;-86
2023/07/05 03:31:22;;;;;;;;;;;;;;;;;;6157879;23;19915;-86
2023/07/05 03:33:47;;;;;;;;;;;;;;;;;;6077178;23;20309;-86
2023/07/05 03:36:14;;;;;;;;;;;;;;;;;;6157703;23;19916;-84
2023/07/05 03:38:40;;;;;;;;;;;;;;;;;;6157598;23;20217;-86
2023/07/05 03:41:06;;;;;;;;;;;;;;;;;;6157633;23;19955;-86
2023/07/05 03:43:35;;;;;;;;;;;;;;;;;;6157240;23;19915;-86
2023/07/05 03:46:01;;;;;;;;;;;;;;;;;;6157340;23;19908;-88
2023/07/05 03:48:28;;;;;;;;;;;;;;;;;;6157318;23;20336;-87
2023/07/05 03:50:57;;;;;;;;;;;;;;;;;;6157510;23;19908;-87
2023/07/05 03:53:23;;;;;;;;;;;;;;;;;;6157083;23;19908;-87
2023/07/05 03:55:48;;;;;;;;;;;;;;;;;;6157437;23;20214;-87
2023/07/05 03:58:13;;;;;;;;;;;;;;;;;;6157175;23;19983;-86
2023/07/05 04:00:39;;;;;;;;;;;;;;;;;;6157345;23;19909;-86
2023/07/05 04:03:04;;;;;;;;;;;;;;;;;;6157436;23;19909;-84
2023/07/05 04:05:30;;;;;;;;;;;;;;;;;;6157174;23;19915;-84
2023/07/05 04:07:55;;;;;;;;;;;;;;;;;;6157160;23;20317;-84
2023/07/05 04:10:20;;;;;;;;;;;;;;;;;;6157153;23;20366;-85
2023/07/05 04:12:45;;;;;;;;;;;;;;;;;;6157011;23;20263;-85
2023/07/05 04:15:11;;;;;;;;;;;;;;;;;;6156880;23;19908;-86
2023/07/05 04:17:36;;;;;;;;;;;;;;;;;;6157190;23;19915;-86
2023/07/05 04:20:03;;;;;;;;;;;;;;;;;;6157269;23;19908;-86
2023/07/05 04:22:31;;;;;;;;;;;;;;;;;;6156904;23;20317;-85
2023/07/05 04:24:56;;;;;;;;;;;;;;;;;;6156950;23;19912;-85
2023/07/05 04:27:22;;;;;;;;;;;;;;;;;;6156876;23;19975;-86
2023/07/05 04:29:47;;;;;;;;;;;;;;;;;;6156949;23;19909;-86
2023/07/05 04:32:12;;;;;;;4.38;3.80;;;;;;;;;;6130307;23;20205;-85
2023/07/05 04:34:40;;;;;;;3.30;2.88;;;;;;;;;;6156252;23;20016;-86
2023/07/05 04:37:06;;;;;;;3.80;2.85;;;;;;;;;;6156356;23;20009;-86
2023/07/05 04:39:32;;;;;;;2.55;2.22;;;;;;;;;;6156439;23;20005;-86
2023/07/05 04:41:57;;;;;;;3.03;2.47;;;;;;;;;;6156491;23;20025;-86
2023/07/05 04:44:23;;;;;;;4.80;2.60;;;;;;;;;;6156223;23;20015;-87
2023/07/05 04:46:48;;;;;;;3.53;2.70;;;;;;;;;;6156306;23;20002;-86
2023/07/05 04:49:14;;;;;;;4.55;2.83;;;;;;;;;;6130254;23;20009;-88
2023/07/05 04:51:39;;;;;;;2.50;2.30;;;;;;;;;;6156342;23;20001;-87
2023/07/05 04:54:04;;;;;;;;;;;;;;;;;;6156653;23;20005;-87
2023/07/05 04:56:30;;;;;;;;;;;;;;;;;;6157077;23;19912;-89
2023/07/05 04:58:56;;;;;;;;;;;;;;;;;;6156705;23;19983;-86
2023/07/05 05:01:21;;;;;;;;;;;;;;;;;;6157016;23;19912;-87
2023/07/05 05:03:47;;;;;;;;;;;;;;;;;;6156606;23;20379;-88
2023/07/05 05:06:12;;;;;;;;;;;;;;;;;;6156615;23;19916;-88
2023/07/05 05:08:37;;;;;;;;;;;;;;;;;;6156670;23;19915;-91
2023/07/05 05:11:03;;;;;;;;;;;;;;;;;;6156488;23;20011;-89
2023/07/05 05:13:30;;;;;;;;;;;;;;;;;;6130405;23;19908;-90
2023/07/05 05:15:56;;;;;;;;;;;;;;;;;;6159798;23;19916;-87
2023/07/05 05:18:21;;;;;;;;;;;;;;;;;;6157162;23;19964;-89
2023/07/05 05:20:48;;;;;;;;;;;;;;;;;;6156639;23;19915;-90
2023/07/05 05:23:13;;;;;;;;;;;;;;;;;;6156523;23;20221;-89
2023/07/05 05:25:42;;;;;;;;;;;;;;;;;;6156684;23;19919;-89
2023/07/05 05:28:07;;;;;;;;;;;;;;;;;;6155510;23;19918;-89
2023/07/05 05:30:33;;;;;;;;;;;;;;;;;;6130081;23;19940;-87
2023/07/05 05:32:58;;;;;;;;;;;;;;;;;;6156689;23;19908;-89
2023/07/05 05:35:24;;;;;;;;;;;;;;;;;;6156224;23;20269;-88
2023/07/05 05:37:49;;;;;;;;;;;;;;;;;;6156565;23;19909;-89
2023/07/05 05:40:15;;;;;;;;;;;;;;;;;;6156459;23;19916;-88
2023/07/05 05:42:40;;;;;;;;;;;;;;;;;;6156546;23;19924;-89
2023/07/05 05:45:05;;;;;;;;;;;;;;;;;;6156579;23;19979;-88
2023/07/05 05:47:31;;;;;;;;;;;;;;;;;;6156620;23;19991;-89
2023/07/05 05:49:56;;;;;;;;;;;;;;;;;;6156842;23;19915;-89
2023/07/05 05:52:22;;;;;;;;;;;;;;;;;;6130280;23;19909;-89
2023/07/05 05:54:47;;;;;;;;;;;;;;;;;;6130463;23;19912;-90
2023/07/05 05:57:12;;;;;;;;;;;;;;;;;;6160630;23;19987;-89
2023/07/05 05:59:37;;;;;;;;;;;;;;;;;;6130307;23;20313;-89
2023/07/05 06:02:03;;;;;;;;;;;;;;;;;;6130530;23;19908;-90
2023/07/05 06:04:28;;;;;;;;;;;;;;;;;;6157760;23;19983;-91
2023/07/05 06:06:53;;;;;;;;;;;;;;;;;;6130499;23;19908;-90
2023/07/05 06:09:21;;;;;;;;;;;;;;;;;;6130627;23;19909;-91
2023/07/05 06:11:46;;;;;;;;;;;;;;;;;;6130480;23;19909;-90
2023/07/05 09:57:04;;;;;;;2.72;1.95;;;;;;;;;;6132573;23;20013;-95
2023/07/05 09:59:30;;;;;;;2.20;2.00;;;;;;;;;;6163026;23;20040;-95
2023/07/05 10:02:14;;;;;;;1.95;1.73;;;;;;;;;;6162673;23;20006;-94
2023/07/05 10:04:55;;;;;;;2.95;1.80;;;;;;;;;;6161455;23;20009;-94
2023/07/05 10:07:29;;;;;;;2.30;2.10;;;;;;;;;;6160920;23;20511;-94
2023/07/05 10:10:09;;;;;;;3.67;2.40;;;;;;;;;;6161071;23;20005;-91
2023/07/05 10:12:39;;;;;;;3.15;2.20;;;;;;;;;;6159608;23;20005;-92
2023/07/05 10:15:24;;;;;;;2.80;2.40;;;;;;;;;;6159655;23;20005;-92
2023/07/05 10:17:53;;;;;;;2.85;2.22;;;;;;;;;;6157962;23;20037;-92
2023/07/05 10:20:23;;;;;;;4.85;2.30;;;;;;;;;;6159789;23;20002;-86
2023/07/05 10:23:04;;;;;;;4.28;2.33;;;;;;;;;;6159709;23;20013;-93
2023/07/05 10:25:34;;;;;;;4.50;2.30;;;;;;;;;;6159801;23;20480;-91
2023/07/05 10:28:02;;;;;;;2.42;2.22;;;;;;;;;;6158720;23;20002;-91
2023/07/05 10:30:29;;;;;;;3.70;2.50;;;;;;;;;;6134243;23;20025;-90
2023/07/05 10:33:20;;;;;;;2.95;1.90;;;;;;;;;;6160552;23;20025;-94
2023/07/05 10:38:55;;;;;;;3.13;2.42;;;;;;;;;;6169429;23;20037;-88
2023/07/05 10:41:21;;;;;;;3.08;2.30;;;;;;;;;;6180248;22;20044;-93
2023/07/05 10:44:02;;;;;;;2.53;2.30;;;;;;;;;;6169565;23;20013;-86
2023/07/05 10:46:28;;;;;;;2.17;1.98;;;;;;;;;;6169757;23;20014;-90
2023/07/05 10:49:02;;;;;;;2.10;1.80;;;;;;;;;;6165703;22;20010;-95
2023/07/05 10:51:43;;;;;;;2.15;2.00;;;;;;;;;;6136673;23;20013;-93
2023/07/05 10:54:27;;;;;;;4.93;2.20;;;;;;;;;;6106640;23;20006;-91
2023/07/05 10:56:55;;;;;;;3.35;2.13;;;;;;;;;;6103369;23;20016;-93
2023/07/05 10:59:45;;;;;;;2.45;2.25;;;;;;;;;;6132377;23;20472;-92
2023/07/05 11:02:20;;;;;;;2.65;1.95;;;;;;;;;;6134293;23;20006;-92
2023/07/05 11:04:49;;;;;;;2.38;2.17;;;;;;;;;;6110941;23;20021;-94
2023/07/05 11:07:17;;;;;;;2.53;2.22;;;;;;;;;;6138250;23;20006;-93
2023/07/05 11:09:45;;;;;;;2.30;2.10;;;;;;;;;;6105226;23;19998;-86
2023/07/05 11:12:30;;;;;;;3.13;2.30;;;;;;;;;;6110880;23;20032;-96
2023/07/05 11:14:59;;;;;;;2.70;2.30;;;;;;;;;;6131059;23;20501;-83
2023/07/05 11:17:36;;;;;;;2.10;1.92;;;;;;;;;;6132379;23;20009;-94
2023/07/05 11:20:23;;;;;;;2.35;2.15;;;;;;;;;;6105820;23;20418;-84
2023/07/05 11:22:49;;;;;;;3.10;2.03;;;;;;;;;;6130363;23;20010;-84
2023/07/05 11:25:18;;;;;;;2.28;2.05;;;;;;;;;;6133147;23;20091;-86
2023/07/05 11:27:56;;;;;;;2.53;2.20;;;;;;;;;;6133269;23;20048;-92
2023/07/05 11:30:45;;;;;;;5.63;2.33;;;;;;;;;;6131306;23;20013;-90
2023/07/05 11:33:10;;;;;;;3.30;2.30;;;;;;;;;;6130594;23;20033;-87
2023/07/05 11:35:46;;;;;;;2.20;2.00;;;;;;;;;;6129533;23;20006;-88
2023/07/05 11:38:43;;;;;;;2.65;2.03;;;;;;;;;;6134411;23;20002;-96
2023/07/05 11:41:27;;;;;;;3.63;2.25;;;;;;;;;;6142963;23;20009;-94
2023/07/05 11:44:31;;;;;;;5.43;2.17;;;;;;;;;;6150113;23;20021;-90
2023/07/05 17:18:49;;;;;;;4.80;4.15;;;;;;;;;;6137119;23;20305;-88
2023/07/05 17:21:15;;;;;;;6.45;4.80;;;;;;;;;;6131033;23;20041;-91
2023/07/05 17:23:41;;;;;;;6.30;4.88;;;;;;;;;;6157535;23;20005;-90
2023/07/05 17:26:11;;;;;;;5.97;4.90;;;;;;;;;;6131585;23;20044;-92
2023/07/05 17:28:41;;;;;;;5.30;4.75;;;;;;;;;;6157019;23;20008;-88
2023/07/05 17:31:16;;;;;;;5.57;4.10;;;;;;;;;;6157100;23;20012;-94
2023/07/05 17:33:43;;;;;;;6.03;5.10;;;;;;;;;;6151932;23;20005;-89
2023/07/05 17:36:13;;;;;;;5.95;4.95;;;;;;;;;;6153924;23;20010;-92
2023/07/05 17:38:39;;;;;;;9.30;6.07;;;;;;;;;;6170937;23;20015;-95
2023/07/05 17:41:06;;;;;;;7.60;5.30;;;;;;;;;;6131231;23;20092;-86
2023/07/05 17:43:32;;;;;;;5.20;4.28;;;;;;;;;;6158829;23;20002;-88
2023/07/05 17:46:13;;;;;;;5.90;4.38;;;;;;;;;;6135616;23;20009;-92
2023/07/05 17:48:39;;;;;;;6.68;4.72;;;;;;;;;;6159742;23;20006;-88
2023/07/05 17:51:06;;;;;;;7.20;5.65;;;;;;;;;;6131574;23;20009;-91
2023/07/05 17:53:31;;;;;;;6.65;4.60;;;;;;;;;;6156519;23;20369;-89
2023/07/05 17:55:57;;;;;;;6.75;4.32;;;;;;;;;;6157121;23;20060;-88
2023/07/05 17:58:22;;;;;;;5.60;4.00;;;;;;;;;;6156776;23;20002;-90
2023/07/05 18:00:48;;;;;;;5.38;4.60;;;;;;;;;;6130051;23;20036;-91
2023/07/05 18:03:15;;;;;;;5.97;4.40;;;;;;;;;;6130434;23;20013;-91
2023/07/05 18:05:42;;;;;;;11.00;5.20;;;;;;;;;;6156386;23;20485;-87
2023/07/05 18:08:08;;;;;;;5.90;4.40;;;;;;;;;;6156914;23;20010;-90
2023/07/05 18:10:34;;;;;;;4.75;4.25;;;;;;;;;;6156985;23;20443;-92
2023/07/05 18:12:59;;;;;;;5.97;4.57;;;;;;;;;;6156660;23;20009;-91
2023/07/05 18:15:27;;;;;;;5.80;4.25;;;;;;;;;;6158337;23;20337;-89
2023/07/05 18:17:53;;;;;;;7.15;5.18;;;;;;;;;;6158546;23;20013;-90
2023/07/05 18:20:19;;;;;;;6.50;4.65;;;;;;;;;;6132318;23;20399;-93
2023/07/05 18:22:46;;;;;;;5.38;4.70;;;;;;;;;;6136161;23;20029;-88
2023/07/05 18:25:12;;;;;;;6.00;4.30;;;;;;;;;;6132775;23;20063;-92
2023/07/05 18:27:37;;;;;;;4.75;4.13;;;;;;;;;;6133782;23;20005;-92
2023/07/05 18:30:04;;;;;;;7.22;5.35;;;;;;;;;;6132398;23;20016;-91
2023/07/05 18:32:29;;;;;;;6.50;3.90;;;;;;;;;;6158548;23;20009;-92
2023/07/05 18:34:55;;;;;;;5.22;4.45;;;;;;;;;;6158236;23;20006;-91
2023/07/05 18:37:21;;;;;;;5.47;4.32;;;;;;;;;;6159865;23;20036;-89
2023/07/05 18:39:46;;;;;;;5.45;4.40;;;;;;;;;;6160665;23;20066;-91
2023/07/05 18:42:12;;;;;;;5.00;4.20;;;;;;;;;;6161433;23;20005;-88
2023/07/05 18:44:38;;;;;;;8.85;4.45;;;;;;;;;;6131402;23;20076;-87
2023/07/05 18:47:08;;;;;;;5.30;4.35;;;;;;;;;;6158143;23;20487;-87
2023/07/05 18:49:34;;;;;;;11.00;6.85;;;;;;;;;;6157851;23;19998;-88
2023/07/05 18:51:59;;;;;;;9.27;6.40;;;;;;;;;;6157835;23;20117;-86
2023/07/05 18:54:25;;;;;;;7.45;5.18;;;;;;;;;;6157819;23;20076;-86
2023/07/05 18:56:51;;;;;;;6.15;4.57;;;;;;;;;;6157339;23;20002;-86
2023/07/05 18:59:16;;;;;;;6.28;4.63;;;;;;;;;;6157671;23;20008;-86
2023/07/05 19:01:43;;;;;;;6.53;4.47;;;;;;;;;;6157507;23;20433;-86
2023/07/05 19:04:09;;;;;;;5.35;4.25;;;;;;;;;;6157860;23;19998;-86
2023/07/05 19:06:34;;;;;;;5.32;4.82;;;;;;;;;;6157294;23;20329;-87
2023/07/05 19:09:00;;;;;;;5.65;4.85;;;;;;;;;;6157145;23;20002;-85
2023/07/05 19:11:28;;;;;;;5.90;4.18;;;;;;;;;;6131221;23;19997;-86
2023/07/05 19:13:54;;;;;;;5.53;4.93;;;;;;;;;;6156930;23;20036;-86
2023/07/05 19:16:22;;;;;;;4.63;3.95;;;;;;;;;;6156993;23;20006;-86
2023/07/05 19:18:48;;;;;;;6.80;4.38;;;;;;;;;;6130845;23;20022;-86
2023/07/05 19:21:15;;;;;;;5.13;4.63;;;;;;;;;;6157408;23;20006;-86
2023/07/05 19:23:44;;;;;;;6.57;5.28;;;;;;;;;;6157244;23;20123;-86
2023/07/05 19:26:11;;;;;;;4.53;4.13;;;;;;;;;;6156866;23;20060;-85
2023/07/05 19:28:38;;;;;;;7.07;5.47;;;;;;;;;;6157390;23;20177;-85
2023/07/05 19:31:19;;;;;;;6.68;4.68;;;;;;;;;;6131121;23;20515;-85
2023/07/05 19:33:46;;;;;;;5.18;4.50;;;;;;;;;;6156907;23;20006;-85
2023/07/05 19:36:12;;;;;;;6.03;4.40;;;;;;;;;;6157195;23;20062;-85
2023/07/05 19:38:38;;;;;;;4.90;4.35;;;;;;;;;;6130796;23;20005;-85
2023/07/05 19:41:04;;;;;;;4.80;4.07;;;;;;;;;;6156839;23;20076;-85
2023/07/05 19:43:30;;;;;;;5.95;4.75;;;;;;;;;;6130453;23;20314;-85
2023/07/05 19:46:04;;;;;;;6.38;4.55;;;;;;;;;;6156576;23;20076;-85
2023/07/05 19:48:29;;;;;;;6.35;4.38;;;;;;;;;;6156623;23;20325;-86
2023/07/05 19:50:59;;;;;;;5.05;4.00;;;;;;;;;;6157370;23;20002;-89
2023/07/05 19:53:24;;;;;;;4.70;4.15;;;;;;;;;;6157507;23;20006;-91
2023/07/05 19:55:51;;;;;;;8.45;5.28;;;;;;;;;;6131387;23;20012;-92
2023/07/05 19:58:17;;;;;;;5.57;4.03;;;;;;;;;;6131719;23;20459;-90
2023/07/05 20:00:42;;;;;;;5.88;4.40;;;;;;;;;;6131529;23;20002;-91
2023/07/05 20:03:09;;;;;;;5.80;4.38;;;;;;;;;;6131727;23;20084;-92
2023/07/05 20:05:35;;;;;;;5.78;4.53;;;;;;;;;;6132052;23;20002;-92
2023/07/05 20:08:05;;;;;;;5.65;4.50;;;;;;;;;;6131603;23;20018;-92
2023/07/05 20:10:32;;;;;;;4.95;3.95;;;;;;;;;;6131853;23;20012;-92
2023/07/05 20:12:58;;;;;;;5.95;4.07;;;;;;;;;;6130803;23;20154;-85
2023/07/05 20:15:24;;;;;;;6.95;4.30;;;;;;;;;;6156667;23;20425;-85
2023/07/05 20:17:51;;;;;;;8.52;4.30;;;;;;;;;;6130191;23;20023;-86
2023/07/05 20:20:18;;;;;;;7.22;4.43;;;;;;;;;;6130514;23;20010;-85
2023/07/05 20:22:44;;;;;;;5.53;3.90;;;;;;;;;;6156539;23;20448;-85
2023/07/05 20:25:09;;;;;;;5.28;4.30;;;;;;;;;;6130301;23;20013;-85
2023/07/05 20:27:35;;;;;;;4.95;4.43;;;;;;;;;;6130238;23;20029;-85
2023/07/05 20:30:01;;;;;;;6.85;4.85;;;;;;;;;;6130526;23;20010;-86
2023/07/05 20:32:26;;;;;;;5.43;4.10;;;;;;;;;;6156494;23;20417;-85
2023/07/05 20:34:52;;;;;;;4.95;4.22;;;;;;;;;;6156311;23;20024;-86
2023/07/05 20:37:17;;;;;;;6.53;4.22;;;;;;;;;;6130058;23;20388;-85
2023/07/05 20:39:43;;;;;;;8.10;4.10;;;;;;;;;;6130059;23;20058;-85
2023/07/05 20:42:08;;;;;;;5.45;4.10;;;;;;;;;;6130247;23;20006;-85
2023/07/05 20:44:34;;;;;;;4.40;4.00;;;;;;;;;;6129973;23;20448;-86
2023/07/05 20:46:59;;;;;;;6.75;4.47;;;;;;;;;;6156380;23;19994;-85
2023/07/05 20:49:25;;;;;;;5.03;4.50;;;;;;;;;;6156495;23;20050;-85
2023/07/05 20:51:53;;;;;;;6.05;4.97;;;;;;;;;;6156405;23;20473;-85
2023/07/05 20:54:20;;;;;;;7.93;4.77;;;;;;;;;;6155952;23;20013;-85
2023/07/05 20:56:47;;;;;;;5.90;4.43;;;;;;;;;;6130064;23;20236;-85
2023/07/05 20:59:13;;;;;;;6.15;4.25;;;;;;;;;;6130214;23;20044;-85
2023/07/05 21:01:39;;;;;;;5.32;4.20;;;;;;;;;;6156393;23;20328;-85
2023/07/05 21:04:05;;;;;;;4.28;3.88;;;;;;;;;;6156365;23;20037;-90
2023/07/05 21:06:32;;;;;;;5.40;4.18;;;;;;;;;;6156977;23;20439;-86
2023/07/05 21:08:58;;;;;;;4.53;3.25;;;;;;;;;;6132857;23;20416;-85
2023/07/05 21:11:24;;;;;;;4.88;3.38;;;;;;;;;;6132543;23;20447;-84
2023/07/05 21:13:49;;;;;;;4.38;3.08;;;;;;;;;;6156645;23;20005;-85
